Time;durP1;ratioP1;P1;durP2;ratioP2;P2;SDS_P1;SDS_P2;PMS_P1;PMS_P2;Temp;Humidity;BMP_temperature;BMP_pressure;BME280_temperature;BME280_humidity;BME280_pressure;Samples;Min_cycle;Max_cycle;Signal;HPM_P1;HPM_P2
2021/09/23 00:00:15;;;;;;;26.15;15.93;;;;;;;;;;4876031;29;20106;-66
2021/09/23 00:05:13;;;;;;;26.55;16.73;;;;;;;;;;4915188;29;20449;-64
2021/09/23 00:07:40;;;;;;;24.45;15.77;;;;;;;;;;4916768;29;20029;-61
2021/09/23 00:10:07;;;;;;;24.67;16.35;;;;;;;;;;4916910;29;20077;-62
2021/09/23 00:12:34;;;;;;;24.67;15.75;;;;;;;;;;4916783;29;20028;-63
2021/09/23 00:15:00;;;;;;;29.05;16.75;;;;;;;;;;4916636;29;20028;-66
2021/09/23 00:17:26;;;;;;;30.25;17.15;;;;;;;;;;4916321;29;20040;-62
2021/09/23 00:19:52;;;;;;;29.33;17.13;;;;;;;;;;4916618;29;20021;-62
2021/09/23 00:22:19;;;;;;;28.45;16.90;;;;;;;;;;4916311;29;20032;-61
2021/09/23 00:24:45;;;;;;;26.10;16.23;;;;;;;;;;4916197;29;20123;-63
2021/09/23 00:27:11;;;;;;;26.17;16.70;;;;;;;;;;4916281;29;20039;-62
2021/09/23 00:29:37;;;;;;;26.15;15.38;;;;;;;;;;4916216;29;20032;-62
2021/09/23 00:32:03;;;;;;;27.55;16.95;;;;;;;;;;4916193;29;20075;-63
2021/09/23 00:34:29;;;;;;;27.30;17.02;;;;;;;;;;4916158;29;20046;-62
2021/09/23 00:36:55;;;;;;;29.38;17.08;;;;;;;;;;4915756;29;20032;-60
2021/09/23 00:39:23;;;;;;;28.05;17.17;;;;;;;;;;4916168;29;20039;-61
2021/09/23 00:41:50;;;;;;;29.90;18.23;;;;;;;;;;4915982;29;20823;-62
2021/09/23 00:44:17;;;;;;;28.20;17.27;;;;;;;;;;4915927;29;20032;-63
2021/09/23 00:46:44;;;;;;;35.50;19.27;;;;;;;;;;4915802;29;20036;-60
2021/09/23 00:49:10;;;;;;;30.52;18.92;;;;;;;;;;4915965;29;20028;-62
2021/09/23 00:51:37;;;;;;;32.08;18.08;;;;;;;;;;4915958;29;20032;-63
2021/09/23 00:54:03;;;;;;;31.67;19.65;;;;;;;;;;4915822;29;20059;-61
2021/09/23 00:56:29;;;;;;;31.65;18.95;;;;;;;;;;4915761;29;20044;-63
2021/09/23 00:58:55;;;;;;;34.92;19.20;;;;;;;;;;4915488;29;20718;-63
2021/09/23 01:01:21;;;;;;;33.35;19.88;;;;;;;;;;4915920;29;20032;-63
2021/09/23 01:03:47;;;;;;;34.63;20.33;;;;;;;;;;4915547;29;20035;-62
2021/09/23 01:06:13;;;;;;;35.08;20.17;;;;;;;;;;4915380;29;20079;-62
2021/09/23 01:08:40;;;;;;;34.88;20.50;;;;;;;;;;4915828;29;20032;-62
2021/09/23 01:11:06;;;;;;;32.58;20.05;;;;;;;;;;4915483;29;20473;-61
2021/09/23 01:13:33;;;;;;;34.83;19.85;;;;;;;;;;4915455;29;20111;-61
2021/09/23 01:15:59;;;;;;;37.80;21.35;;;;;;;;;;4915189;29;20044;-62
2021/09/23 01:18:25;;;;;;;37.67;20.55;;;;;;;;;;4915474;29;20028;-63
2021/09/23 01:20:51;;;;;;;34.75;20.55;;;;;;;;;;4915669;29;20213;-64
2021/09/23 01:23:18;;;;;;;36.97;21.35;;;;;;;;;;4915525;29;20075;-62
2021/09/23 01:25:44;;;;;;;38.50;20.35;;;;;;;;;;4915410;29;20020;-62
2021/09/23 01:28:10;;;;;;;33.25;19.80;;;;;;;;;;4915383;29;20028;-61
2021/09/23 01:30:36;;;;;;;35.22;21.30;;;;;;;;;;4915363;29;20480;-63
2021/09/23 01:33:02;;;;;;;34.92;20.95;;;;;;;;;;4915178;29;20423;-61
2021/09/23 01:35:28;;;;;;;33.10;19.75;;;;;;;;;;4915177;29;20036;-63
2021/09/23 01:37:55;;;;;;;33.40;20.00;;;;;;;;;;4915023;29;20447;-60
2021/09/23 01:40:21;;;;;;;33.22;19.27;;;;;;;;;;4914967;29;20024;-60
2021/09/23 01:42:47;;;;;;;31.23;19.25;;;;;;;;;;4914866;29;20094;-60
2021/09/23 01:45:14;;;;;;;32.95;19.08;;;;;;;;;;4914820;29;20385;-61
2021/09/23 01:47:40;;;;;;;34.75;20.10;;;;;;;;;;4914699;29;20055;-60
2021/09/23 01:50:06;;;;;;;35.70;20.77;;;;;;;;;;4915240;29;20052;-63
2021/09/23 01:52:32;;;;;;;33.80;19.20;;;;;;;;;;4914951;29;20111;-60
2021/09/23 01:54:58;;;;;;;30.60;18.95;;;;;;;;;;4914978;29;20032;-60
2021/09/23 01:57:24;;;;;;;32.63;18.95;;;;;;;;;;4914758;29;20043;-60
2021/09/23 01:59:50;;;;;;;31.25;18.80;;;;;;;;;;4915011;29;20493;-62
2021/09/23 02:02:16;;;;;;;33.42;19.13;;;;;;;;;;4916562;29;20039;-60
2021/09/23 02:04:42;;;;;;;26.95;17.60;;;;;;;;;;4916085;29;20052;-61
2021/09/23 02:07:09;;;;;;;31.23;18.42;;;;;;;;;;4914802;29;20032;-60
2021/09/23 02:09:36;;;;;;;29.10;17.60;;;;;;;;;;4914767;29;20416;-61
2021/09/23 02:12:04;;;;;;;29.48;17.40;;;;;;;;;;4914923;29;20251;-60
2021/09/23 02:14:30;;;;;;;27.90;16.52;;;;;;;;;;4914866;29;20028;-60
2021/09/23 02:16:57;;;;;;;27.90;16.52;;;;;;;;;;4914765;29;20036;-60
2021/09/23 02:19:23;;;;;;;29.50;17.15;;;;;;;;;;4915040;29;20544;-61
2021/09/23 02:21:49;;;;;;;29.38;16.75;;;;;;;;;;4914825;29;20036;-62
2021/09/23 02:24:15;;;;;;;28.02;16.45;;;;;;;;;;4914679;29;20392;-61
2021/09/23 02:26:41;;;;;;;27.52;16.50;;;;;;;;;;4914662;29;20400;-63
2021/09/23 02:29:07;;;;;;;27.88;15.93;;;;;;;;;;4916374;29;20107;-64
2021/09/23 02:31:33;;;;;;;26.75;15.52;;;;;;;;;;4918139;29;20039;-62
2021/09/23 02:33:59;;;;;;;25.48;15.70;;;;;;;;;;4918234;29;20025;-63
2021/09/23 02:36:25;;;;;;;24.67;15.55;;;;;;;;;;4918059;29;20052;-63
2021/09/23 02:38:51;;;;;;;25.98;15.30;;;;;;;;;;4918192;29;20039;-61
2021/09/23 02:41:17;;;;;;;25.08;15.30;;;;;;;;;;4918047;29;20539;-62
2021/09/23 02:43:43;;;;;;;24.95;14.60;;;;;;;;;;4918046;29;20038;-59
2021/09/23 02:46:09;;;;;;;24.42;14.75;;;;;;;;;;4917798;29;20055;-60
2021/09/23 02:48:35;;;;;;;28.17;14.82;;;;;;;;;;4917899;29;20032;-62
2021/09/23 02:51:01;;;;;;;24.20;14.63;;;;;;;;;;4918079;29;20027;-60
2021/09/23 02:53:27;;;;;;;24.20;14.57;;;;;;;;;;4918124;29;20389;-63
2021/09/23 02:55:53;;;;;;;21.40;14.13;;;;;;;;;;4917696;29;20488;-61
2021/09/23 02:58:20;;;;;;;21.73;13.50;;;;;;;;;;4917939;29;20111;-61
2021/09/23 03:00:46;;;;;;;26.20;14.40;;;;;;;;;;4917990;29;20035;-64
2021/09/23 03:03:14;;;;;;;26.17;14.70;;;;;;;;;;4917709;29;20175;-63
2021/09/23 03:05:40;;;;;;;22.02;12.32;;;;;;;;;;4917384;29;20060;-63
2021/09/23 03:08:06;;;;;;;21.42;12.68;;;;;;;;;;4917846;29;20032;-62
2021/09/23 03:10:32;;;;;;;19.95;12.38;;;;;;;;;;4917831;29;20436;-60
2021/09/23 03:12:58;;;;;;;19.92;12.07;;;;;;;;;;4917554;29;20038;-62
2021/09/23 03:15:24;;;;;;;25.88;13.55;;;;;;;;;;4917625;29;20032;-61
2021/09/23 03:17:50;;;;;;;21.05;12.88;;;;;;;;;;4917383;29;20036;-60
2021/09/23 03:20:19;;;;;;;17.98;11.75;;;;;;;;;;4917372;29;20548;-63
2021/09/23 03:22:45;;;;;;;16.42;11.13;;;;;;;;;;4916842;29;20029;-60
2021/09/23 03:25:11;;;;;;;17.92;11.25;;;;;;;;;;4917213;29;20439;-63
2021/09/23 03:27:37;;;;;;;18.58;10.90;;;;;;;;;;4917078;29;20784;-63
2021/09/23 03:30:04;;;;;;;19.45;11.55;;;;;;;;;;4917371;29;20028;-60
2021/09/23 03:32:30;;;;;;;17.88;10.90;;;;;;;;;;4917224;29;20495;-62
2021/09/23 03:34:56;;;;;;;17.33;10.73;;;;;;;;;;4916799;29;20031;-62
2021/09/23 03:37:22;;;;;;;16.73;10.00;;;;;;;;;;4916869;29;20048;-64
2021/09/23 03:39:48;;;;;;;17.92;10.32;;;;;;;;;;4917050;29;20028;-63
2021/09/23 03:42:14;;;;;;;15.63;9.80;;;;;;;;;;4916701;29;20486;-61
2021/09/23 03:44:40;;;;;;;18.50;10.23;;;;;;;;;;4917032;29;20032;-61
2021/09/23 03:47:06;;;;;;;16.73;10.27;;;;;;;;;;4917052;29;20036;-61
2021/09/23 03:49:32;;;;;;;16.08;10.65;;;;;;;;;;4916655;29;20040;-60
2021/09/23 03:51:58;;;;;;;17.02;9.98;;;;;;;;;;4916903;29;20063;-61
2021/09/23 03:54:24;;;;;;;16.42;10.15;;;;;;;;;;4916663;29;20032;-63
2021/09/23 03:56:50;;;;;;;15.98;9.80;;;;;;;;;;4916753;29;20036;-61
2021/09/23 03:59:16;;;;;;;15.43;9.63;;;;;;;;;;4916659;29;20373;-61
2021/09/23 04:01:44;;;;;;;15.07;9.43;;;;;;;;;;4916892;29;20437;-62
2021/09/23 04:04:10;;;;;;;17.50;9.40;;;;;;;;;;4916244;29;20160;-62
2021/09/23 04:06:42;;;;;;;14.70;9.38;;;;;;;;;;4916684;29;20047;-62
2021/09/23 04:09:09;;;;;;;15.82;8.65;;;;;;;;;;4916576;29;20032;-63
2021/09/23 04:11:35;;;;;;;13.27;8.88;;;;;;;;;;4916718;29;20091;-60
2021/09/23 04:14:01;;;;;;;14.18;8.88;;;;;;;;;;4916442;29;20555;-59
2021/09/23 04:16:27;;;;;;;16.48;9.57;;;;;;;;;;4916026;29;20040;-62
2021/09/23 04:18:53;;;;;;;16.48;9.93;;;;;;;;;;4916365;29;20035;-61
2021/09/23 04:21:19;;;;;;;14.20;9.15;;;;;;;;;;4916606;29;20433;-64
2021/09/23 04:23:46;;;;;;;16.25;9.60;;;;;;;;;;4916484;29;20176;-62
2021/09/23 04:26:12;;;;;;;15.68;9.52;;;;;;;;;;4916428;29;20050;-61
2021/09/23 04:28:38;;;;;;;15.40;9.23;;;;;;;;;;4916194;29;20049;-61
2021/09/23 04:31:04;;;;;;;17.05;10.07;;;;;;;;;;4899481;29;20032;-64
2021/09/23 04:33:30;;;;;;;15.02;9.95;;;;;;;;;;4915915;29;20071;-62
2021/09/23 04:35:56;;;;;;;15.40;10.13;;;;;;;;;;4915850;29;20036;-62
2021/09/23 04:38:23;;;;;;;19.48;10.18;;;;;;;;;;4916029;29;20047;-62
2021/09/23 04:40:49;;;;;;;19.15;9.90;;;;;;;;;;4916027;29;20385;-61
2021/09/23 04:43:16;;;;;;;17.85;9.75;;;;;;;;;;4915943;29;20021;-61
2021/09/23 04:45:42;;;;;;;17.75;9.95;;;;;;;;;;4929529;29;20472;-60
2021/09/23 04:48:08;;;;;;;16.58;10.13;;;;;;;;;;4915789;29;20043;-61
2021/09/23 04:50:34;;;;;;;15.40;10.07;;;;;;;;;;4915285;29;20540;-64
2021/09/23 04:53:01;;;;;;;15.20;9.93;;;;;;;;;;4915417;29;20035;-64
2021/09/23 04:55:27;;;;;;;17.67;10.23;;;;;;;;;;4915160;29;20111;-60
2021/09/23 04:57:53;;;;;;;23.33;10.98;;;;;;;;;;4915315;29;20436;-62
2021/09/23 05:00:20;;;;;;;22.08;10.70;;;;;;;;;;4915606;29;20629;-61
2021/09/23 05:02:49;;;;;;;25.33;10.60;;;;;;;;;;4915173;29;20032;-62
2021/09/23 05:05:15;;;;;;;24.98;15.35;;;;;;;;;;4914999;29;20064;-60
2021/09/23 05:07:41;;;;;;;19.17;11.00;;;;;;;;;;4915213;29;20040;-64
2021/09/23 05:10:07;;;;;;;15.88;10.40;;;;;;;;;;4915253;29;20035;-66
2021/09/23 05:12:33;;;;;;;18.88;9.55;;;;;;;;;;4914854;29;20028;-61
2021/09/23 05:14:59;;;;;;;16.65;10.15;;;;;;;;;;4915164;29;20028;-65
2021/09/23 05:17:25;;;;;;;17.80;10.82;;;;;;;;;;4914852;29;20560;-60
2021/09/23 05:19:52;;;;;;;20.10;11.02;;;;;;;;;;4914853;29;20059;-60
2021/09/23 05:22:22;;;;;;;16.67;10.40;;;;;;;;;;4915009;29;20137;-63
2021/09/23 05:24:51;;;;;;;18.77;11.13;;;;;;;;;;4914496;29;20055;-63
2021/09/23 05:27:17;;;;;;;18.63;11.10;;;;;;;;;;4914740;29;20068;-60
2021/09/23 05:29:43;;;;;;;18.13;10.93;;;;;;;;;;4914602;29;20397;-65
2021/09/23 05:32:09;;;;;;;18.50;11.63;;;;;;;;;;4914589;29;20028;-60
2021/09/23 05:34:35;;;;;;;20.02;12.02;;;;;;;;;;4914406;29;20115;-60
2021/09/23 05:37:01;;;;;;;22.15;12.77;;;;;;;;;;4914446;29;20040;-65
2021/09/23 05:39:27;;;;;;;21.52;12.77;;;;;;;;;;4914516;29;20527;-64
2021/09/23 05:41:53;;;;;;;23.10;12.43;;;;;;;;;;4914657;29;20503;-61
2021/09/23 05:44:23;;;;;;;19.85;12.65;;;;;;;;;;4914541;29;20123;-65
2021/09/23 05:46:53;;;;;;;22.25;13.05;;;;;;;;;;4914055;29;20090;-62
2021/09/23 05:49:20;;;;;;;21.15;13.05;;;;;;;;;;4914443;29;20028;-61
2021/09/23 05:51:46;;;;;;;20.90;12.65;;;;;;;;;;4914327;29;20060;-62
2021/09/23 05:54:12;;;;;;;30.63;20.92;;;;;;;;;;4914222;29;20426;-64
2021/09/23 05:56:39;;;;;;;23.35;14.05;;;;;;;;;;4914156;29;20044;-64
2021/09/23 05:59:05;;;;;;;19.33;12.98;;;;;;;;;;4913960;29;20387;-61
2021/09/23 06:01:31;;;;;;;18.85;12.07;;;;;;;;;;4914282;29;20110;-63
2021/09/23 06:03:57;;;;;;;22.48;13.10;;;;;;;;;;4915694;29;20032;-65
2021/09/23 06:06:23;;;;;;;18.38;11.77;;;;;;;;;;4918140;29;20052;-62
2021/09/23 06:08:49;;;;;;;20.60;11.68;;;;;;;;;;4918278;29;20032;-61
2021/09/23 06:11:15;;;;;;;21.30;12.68;;;;;;;;;;4917779;29;20147;-61
2021/09/23 06:13:43;;;;;;;20.27;12.30;;;;;;;;;;4918225;29;20028;-65
2021/09/23 06:16:09;;;;;;;20.13;12.32;;;;;;;;;;4918011;29;20127;-64
2021/09/23 06:18:37;;;;;;;19.23;12.85;;;;;;;;;;4918236;29;20051;-64
2021/09/23 06:21:05;;;;;;;24.13;12.55;;;;;;;;;;4917893;29;20400;-65
2021/09/23 06:23:31;;;;;;;20.50;12.85;;;;;;;;;;4917990;29;20634;-61
2021/09/23 06:25:57;;;;;;;19.83;12.45;;;;;;;;;;4918078;29;20482;-60
2021/09/23 06:28:23;;;;;;;19.17;12.10;;;;;;;;;;4917960;29;20389;-62
2021/09/23 06:30:49;;;;;;;22.80;13.57;;;;;;;;;;4917892;29;20396;-60
2021/09/23 06:33:15;;;;;;;20.95;14.43;;;;;;;;;;4917528;29;20408;-62
2021/09/23 06:35:41;;;;;;;20.48;12.85;;;;;;;;;;4917797;29;20442;-63
2021/09/23 06:38:07;;;;;;;19.20;12.68;;;;;;;;;;4917242;29;20032;-60
2021/09/23 06:40:33;;;;;;;21.33;13.07;;;;;;;;;;4917947;29;20102;-62
2021/09/23 06:42:59;;;;;;;24.77;12.90;;;;;;;;;;4916906;29;20400;-63
2021/09/23 06:45:26;;;;;;;20.52;12.07;;;;;;;;;;4915831;29;20028;-64
2021/09/23 06:47:52;;;;;;;22.05;12.65;;;;;;;;;;4917692;29;20039;-61
2021/09/23 06:50:18;;;;;;;19.27;12.35;;;;;;;;;;4917458;29;20028;-71
2021/09/23 06:52:44;;;;;;;18.30;12.30;;;;;;;;;;4917298;29;20039;-61
2021/09/23 06:55:10;;;;;;;20.02;12.38;;;;;;;;;;4917534;29;20056;-61
2021/09/23 06:57:37;;;;;;;22.48;12.02;;;;;;;;;;4917199;29;20471;-64
2021/09/23 07:00:03;;;;;;;20.60;12.30;;;;;;;;;;4917530;29;20028;-61
2021/09/23 07:02:30;;;;;;;20.15;12.38;;;;;;;;;;4917765;29;20032;-62
2021/09/23 07:04:56;;;;;;;19.13;12.95;;;;;;;;;;4917393;29;20044;-64
2021/09/23 07:07:22;;;;;;;22.48;12.98;;;;;;;;;;4916871;29;20459;-67
2021/09/23 07:09:48;;;;;;;16.85;11.77;;;;;;;;;;4917271;29;20043;-64
2021/09/23 07:12:14;;;;;;;20.75;12.20;;;;;;;;;;4917090;29;20115;-63
2021/09/23 07:14:41;;;;;;;19.83;12.75;;;;;;;;;;4916371;29;20055;-62
2021/09/23 07:17:07;;;;;;;20.40;12.65;;;;;;;;;;4916942;29;20110;-62
2021/09/23 07:19:33;;;;;;;18.80;12.60;;;;;;;;;;4916928;29;20039;-62
2021/09/23 07:21:59;;;;;;;20.27;12.73;;;;;;;;;;4916486;29;20067;-62
2021/09/23 07:24:25;;;;;;;20.00;12.45;;;;;;;;;;4916666;29;20035;-62
2021/09/23 07:26:51;;;;;;;20.55;11.88;;;;;;;;;;4915949;29;20087;-62
2021/09/23 07:29:18;;;;;;;20.08;12.50;;;;;;;;;;4916433;29;20036;-64
2021/09/23 07:31:45;;;;;;;23.92;11.00;;;;;;;;;;4916641;29;20024;-63
2021/09/23 07:34:11;;;;;;;20.08;11.63;;;;;;;;;;4916313;29;20028;-64
2021/09/23 07:36:37;;;;;;;18.42;11.57;;;;;;;;;;4916786;29;20075;-63
2021/09/23 07:39:06;;;;;;;16.60;9.95;;;;;;;;;;4916347;29;20047;-63
2021/09/23 07:41:44;;;;;;;15.18;9.68;;;;;;;;;;4915941;29;20464;-62
2021/09/23 07:44:11;;;;;;;17.30;10.13;;;;;;;;;;4916216;29;20032;-62
2021/09/23 07:46:37;;;;;;;14.93;9.98;;;;;;;;;;4916636;29;20024;-62
2021/09/23 07:49:04;;;;;;;15.68;9.73;;;;;;;;;;4916028;29;20028;-62
2021/09/23 07:51:30;;;;;;;15.85;9.73;;;;;;;;;;4916403;29;20099;-62
2021/09/23 07:53:56;;;;;;;16.88;9.70;;;;;;;;;;4916705;29;20054;-63
2021/09/23 07:56:22;;;;;;;15.73;10.18;;;;;;;;;;4916413;29;20028;-63
2021/09/23 07:58:48;;;;;;;14.43;9.50;;;;;;;;;;4916323;29;20469;-63
2021/09/23 08:01:14;;;;;;;14.30;9.27;;;;;;;;;;4916811;29;20032;-65
2021/09/23 08:03:40;;;;;;;15.65;9.40;;;;;;;;;;4915510;29;20032;-65
2021/09/23 08:06:06;;;;;;;14.38;9.32;;;;;;;;;;4915954;29;20059;-67
2021/09/23 08:08:32;;;;;;;14.38;9.20;;;;;;;;;;4916238;29;20024;-64
2021/09/23 08:10:58;;;;;;;15.27;10.05;;;;;;;;;;4916078;29;20103;-66
2021/09/23 08:13:24;;;;;;;16.00;9.55;;;;;;;;;;4930298;29;20039;-66
2021/09/23 08:15:50;;;;;;;15.43;9.60;;;;;;;;;;4915391;29;20063;-68
2021/09/23 08:18:19;;;;;;;17.23;9.52;;;;;;;;;;4915708;29;20511;-64
2021/09/23 08:20:45;;;;;;;15.60;9.15;;;;;;;;;;4915738;29;20465;-66
2021/09/23 08:23:11;;;;;;;14.48;8.23;;;;;;;;;;4915708;29;20397;-63
2021/09/23 08:25:37;;;;;;;12.55;8.40;;;;;;;;;;4914701;29;20437;-65
2021/09/23 08:28:04;;;;;;;14.60;8.63;;;;;;;;;;4915314;29;20039;-64
2021/09/23 08:30:30;;;;;;;11.63;7.90;;;;;;;;;;4915567;29;20392;-66
2021/09/23 08:32:56;;;;;;;13.57;8.13;;;;;;;;;;4915761;29;20447;-65
2021/09/23 08:35:23;;;;;;;13.32;9.48;;;;;;;;;;4915098;29;20028;-65
2021/09/23 08:37:49;;;;;;;14.60;9.55;;;;;;;;;;4915556;29;20044;-64
2021/09/23 08:40:15;;;;;;;13.68;9.40;;;;;;;;;;4915583;29;20047;-66
2021/09/23 08:42:45;;;;;;;15.32;9.70;;;;;;;;;;4929519;29;20040;-66
2021/09/23 08:45:12;;;;;;;17.80;11.73;;;;;;;;;;4915324;29;20124;-65
2021/09/23 08:47:38;;;;;;;16.98;10.27;;;;;;;;;;4915396;29;20030;-67
2021/09/23 08:50:09;;;;;;;15.10;10.43;;;;;;;;;;4915513;29;20028;-66
2021/09/23 08:52:35;;;;;;;15.00;9.75;;;;;;;;;;4915409;29;20522;-64
2021/09/23 08:55:03;;;;;;;16.70;9.60;;;;;;;;;;4915146;29;20042;-66
2021/09/23 08:57:29;;;;;;;16.58;10.75;;;;;;;;;;4915367;29;20060;-65
2021/09/23 08:59:55;;;;;;;17.52;10.90;;;;;;;;;;4915121;29;20020;-64
2021/09/23 09:02:25;;;;;;;17.60;11.20;;;;;;;;;;4915480;29;20031;-64
2021/09/23 09:04:55;;;;;;;16.00;10.65;;;;;;;;;;4914685;29;20081;-66
2021/09/23 09:07:25;;;;;;;15.82;10.98;;;;;;;;;;4915315;29;20059;-65
2021/09/23 09:09:52;;;;;;;16.95;11.00;;;;;;;;;;4914979;29;20516;-65
2021/09/23 09:12:18;;;;;;;15.35;10.20;;;;;;;;;;4915281;29;20061;-66
2021/09/23 09:14:46;;;;;;;18.70;10.13;;;;;;;;;;4914946;29;20023;-66
2021/09/23 09:17:12;;;;;;;15.45;9.25;;;;;;;;;;4914501;29;20492;-65
2021/09/23 09:19:50;;;;;;;14.00;9.18;;;;;;;;;;4915373;29;20024;-65
2021/09/23 09:22:18;;;;;;;16.75;10.75;;;;;;;;;;4914978;29;20036;-66
2021/09/23 09:24:48;;;;;;;15.52;9.77;;;;;;;;;;4914781;29;20052;-66
2021/09/23 09:27:26;;;;;;;13.20;8.43;;;;;;;;;;4914958;29;20107;-65
2021/09/23 09:29:53;;;;;;;16.55;9.48;;;;;;;;;;4915152;29;20119;-64
2021/09/23 09:32:52;;;;;;;16.88;9.15;;;;;;;;;;4914838;29;20063;-65
2021/09/23 09:35:19;;;;;;;13.93;9.10;;;;;;;;;;4837984;29;20065;-64
2021/09/23 09:37:47;;;;;;;15.93;9.25;;;;;;;;;;4837666;29;20062;-68
2021/09/23 09:40:15;;;;;;;11.70;7.22;;;;;;;;;;4837821;29;20026;-64
2021/09/23 09:42:43;;;;;;;11.68;7.40;;;;;;;;;;4837883;29;20038;-62
2021/09/23 09:45:09;;;;;;;12.70;6.68;;;;;;;;;;4822572;29;20602;-66
2021/09/23 09:47:35;;;;;;;12.18;6.97;;;;;;;;;;4838059;29;20516;-64
2021/09/23 09:50:14;;;;;;;10.88;6.82;;;;;;;;;;4837841;29;20034;-65
2021/09/23 09:52:47;;;;;;;15.18;7.20;;;;;;;;;;4831357;29;20133;-68
2021/09/23 09:55:13;;;;;;;12.23;7.00;;;;;;;;;;4827793;29;20034;-70
2021/09/23 09:57:49;;;;;;;11.05;6.90;;;;;;;;;;4826469;29;20085;-68
2021/09/23 10:00:16;;;;;;;9.38;6.32;;;;;;;;;;4827195;29;20063;-63
2021/09/23 10:02:43;;;;;;;11.82;7.70;;;;;;;;;;4828324;29;20033;-64
2021/09/23 10:05:10;;;;;;;11.38;6.97;;;;;;;;;;4826998;29;20133;-67
2021/09/23 10:07:36;;;;;;;9.43;5.68;;;;;;;;;;4826612;29;20162;-67
2021/09/23 10:10:03;;;;;;;8.43;5.57;;;;;;;;;;4846174;29;20112;-68
2021/09/23 10:12:30;;;;;;;10.32;5.68;;;;;;;;;;4914491;29;20032;-66
2021/09/23 10:14:57;;;;;;;8.95;5.40;;;;;;;;;;4914510;29;20440;-67
2021/09/23 10:17:23;;;;;;;10.30;5.65;;;;;;;;;;4914712;29;20040;-66
2021/09/23 10:19:49;;;;;;;10.55;6.10;;;;;;;;;;4914521;29;20052;-69
2021/09/23 10:22:15;;;;;;;12.35;6.22;;;;;;;;;;4914375;29;20449;-67
2021/09/23 10:24:42;;;;;;;11.90;7.03;;;;;;;;;;4914448;29;20035;-69
2021/09/23 10:29:54;;;;;;;11.52;6.68;;;;;;;;;;4914405;29;20067;-70
2021/09/23 10:32:21;;;;;;;12.25;6.40;;;;;;;;;;4914075;29;20504;-70
2021/09/23 10:34:51;;;;;;;11.40;7.13;;;;;;;;;;4914254;29;20484;-65
2021/09/23 10:37:18;;;;;;;10.65;5.57;;;;;;;;;;4913943;29;20036;-69
2021/09/23 10:39:45;;;;;;;9.30;5.80;;;;;;;;;;4914345;29;20040;-68
2021/09/23 10:42:20;;;;;;;11.35;5.97;;;;;;;;;;4914192;29;20115;-71
2021/09/23 10:44:46;;;;;;;11.00;5.25;;;;;;;;;;4914212;29;20524;-68
2021/09/23 10:47:12;;;;;;;8.68;5.70;;;;;;;;;;4914319;29;20040;-66
2021/09/23 10:49:38;;;;;;;8.25;5.30;;;;;;;;;;4915099;29;20449;-63
2021/09/23 10:52:04;;;;;;;9.35;5.28;;;;;;;;;;4917109;29;20102;-67
2021/09/23 10:54:31;;;;;;;8.98;5.57;;;;;;;;;;4917163;29;20032;-72
2021/09/23 10:56:57;;;;;;;7.30;4.95;;;;;;;;;;4917477;29;20048;-71
2021/09/23 10:59:26;;;;;;;8.90;4.97;;;;;;;;;;4917749;29;20036;-69
2021/09/23 11:01:52;;;;;;;6.78;4.63;;;;;;;;;;4932099;29;20048;-69
2021/09/23 11:04:20;;;;;;;6.30;4.10;;;;;;;;;;4917136;29;20024;-69
2021/09/23 11:06:46;;;;;;;6.38;3.70;;;;;;;;;;4917616;29;20197;-69
2021/09/23 11:09:19;;;;;;;7.65;4.22;;;;;;;;;;4917466;29;20032;-67
2021/09/23 11:11:46;;;;;;;7.07;4.50;;;;;;;;;;4917417;29;20047;-63
2021/09/23 11:14:13;;;;;;;7.05;4.55;;;;;;;;;;4917389;29;20214;-68
2021/09/23 11:16:40;;;;;;;7.55;4.75;;;;;;;;;;4917201;29;20511;-68
2021/09/23 11:19:07;;;;;;;9.90;4.30;;;;;;;;;;4917330;29;20115;-67
2021/09/23 11:21:33;;;;;;;6.70;4.65;;;;;;;;;;4916696;29;20072;-68
2021/09/23 11:24:00;;;;;;;7.50;4.70;;;;;;;;;;4916641;29;20133;-65
2021/09/23 11:26:27;;;;;;;6.88;4.30;;;;;;;;;;4916708;29;20071;-64
2021/09/23 11:28:55;;;;;;;7.45;4.45;;;;;;;;;;4916942;29;20764;-69
2021/09/23 11:31:21;;;;;;;8.55;4.88;;;;;;;;;;4916635;29;20126;-65
2021/09/23 11:33:51;;;;;;;7.80;4.80;;;;;;;;;;4916778;29;20035;-62
2021/09/23 11:36:18;;;;;;;7.40;4.50;;;;;;;;;;4916545;29;20032;-67
2021/09/23 11:38:45;;;;;;;6.28;4.40;;;;;;;;;;4915948;29;20032;-63
2021/09/23 11:41:14;;;;;;;6.07;4.13;;;;;;;;;;4915857;29;20032;-66
2021/09/23 11:43:40;;;;;;;8.15;4.45;;;;;;;;;;4915392;29;20396;-63
2021/09/23 11:46:06;;;;;;;7.32;4.40;;;;;;;;;;4916177;29;20384;-65
2021/09/23 11:48:35;;;;;;;6.65;4.30;;;;;;;;;;4916574;29;20592;-70
2021/09/23 11:51:03;;;;;;;9.88;4.40;;;;;;;;;;4915504;29;20447;-69
2021/09/23 11:53:31;;;;;;;7.15;4.55;;;;;;;;;;4915632;29;20054;-69
2021/09/23 11:56:03;;;;;;;6.95;4.30;;;;;;;;;;4915812;29;20040;-69
2021/09/23 11:58:29;;;;;;;;;;;;;;;;;;4916683;29;20036;-64
2021/09/23 12:00:56;;;;;;;7.22;4.60;;;;;;;;;;4915776;29;19995;-65
2021/09/23 12:03:22;;;;;;;5.88;4.30;;;;;;;;;;4915998;29;20028;-69
2021/09/23 12:05:49;;;;;;;7.47;4.35;;;;;;;;;;4915621;29;20060;-68
2021/09/23 12:08:15;;;;;;;6.25;3.40;;;;;;;;;;4916001;29;20191;-67
2021/09/23 12:10:49;;;;;;;6.30;3.80;;;;;;;;;;4915351;29;20489;-63
2021/09/23 12:13:36;;;;;;;7.68;4.00;;;;;;;;;;4914739;29;20135;-68
2021/09/23 12:16:14;;;;;;;7.57;4.13;;;;;;;;;;4914141;29;20036;-69
2021/09/23 12:18:41;;;;;;;6.03;4.07;;;;;;;;;;4916101;29;20043;-65
2021/09/23 12:21:09;;;;;;;4.55;3.17;;;;;;;;;;4915654;29;20060;-66
2021/09/23 12:23:37;;;;;;;5.53;3.35;;;;;;;;;;4915328;29;20437;-71
2021/09/23 12:26:04;;;;;;;5.18;3.15;;;;;;;;;;4915544;29;20036;-68
2021/09/23 12:28:31;;;;;;;6.53;3.20;;;;;;;;;;4915147;29;20036;-70
2021/09/23 12:31:01;;;;;;;6.07;3.78;;;;;;;;;;4915078;29;20103;-71
2021/09/23 12:33:27;;;;;;;5.55;3.38;;;;;;;;;;4915099;29;20127;-71
2021/09/23 12:36:17;;;;;;;4.60;3.35;;;;;;;;;;4915455;29;20036;-67
2021/09/23 12:38:43;;;;;;;4.05;2.78;;;;;;;;;;4914930;29;20523;-70
2021/09/23 12:41:21;;;;;;;3.33;2.50;;;;;;;;;;4915150;29;20552;-69
2021/09/23 12:43:47;;;;;;;6.57;2.85;;;;;;;;;;4915198;29;20032;-64
2021/09/23 12:46:14;;;;;;;4.13;2.72;;;;;;;;;;4915457;29;20122;-68
2021/09/23 12:48:41;;;;;;;4.60;2.85;;;;;;;;;;4914784;29;20500;-68
2021/09/23 12:51:08;;;;;;;5.93;2.67;;;;;;;;;;4915353;29;20528;-68
2021/09/23 12:53:35;;;;;;;4.53;2.88;;;;;;;;;;4914933;29;20028;-68
2021/09/23 12:56:01;;;;;;;5.65;2.90;;;;;;;;;;4915183;29;20024;-64
2021/09/23 12:58:29;;;;;;;5.80;2.90;;;;;;;;;;4915190;29;20056;-68
2021/09/23 13:00:56;;;;;;;7.13;3.15;;;;;;;;;;4914243;29;20030;-68
2021/09/23 13:03:22;;;;;;;4.55;3.05;;;;;;;;;;4915179;29;20127;-65
2021/09/23 13:05:49;;;;;;;4.35;2.72;;;;;;;;;;4914535;29;20123;-67
2021/09/23 13:08:25;;;;;;;5.18;2.72;;;;;;;;;;4914826;29;20079;-69
2021/09/23 13:10:53;;;;;;;4.50;3.05;;;;;;;;;;4914316;29;20027;-64
2021/09/23 13:13:23;;;;;;;4.78;3.08;;;;;;;;;;4914089;29;20091;-69
2021/09/23 13:15:49;;;;;;;5.95;3.10;;;;;;;;;;4913956;29;20075;-68
2021/09/23 13:18:15;;;;;;;5.03;3.05;;;;;;;;;;4914772;29;20026;-64
2021/09/23 13:20:41;;;;;;;4.95;3.40;;;;;;;;;;4914341;29;20524;-64
2021/09/23 13:23:12;;;;;;;4.85;3.22;;;;;;;;;;4913836;29;20055;-69
2021/09/23 13:25:38;;;;;;;5.25;3.28;;;;;;;;;;4914433;29;20440;-68
2021/09/23 13:28:34;;;;;;;5.97;3.42;;;;;;;;;;4914785;29;20108;-71
2021/09/23 13:31:05;;;;;;;4.80;3.35;;;;;;;;;;4858947;29;20124;-71
2021/09/23 13:33:31;;;;;;;4.78;3.30;;;;;;;;;;4874448;29;20085;-68
2021/09/23 13:35:58;;;;;;;4.80;3.20;;;;;;;;;;4873948;29;20052;-70
2021/09/23 13:38:25;;;;;;;5.13;3.35;;;;;;;;;;4874619;29;20045;-72
2021/09/23 13:40:51;;;;;;;5.05;3.13;;;;;;;;;;4874835;29;20036;-67
2021/09/23 13:43:17;;;;;;;6.38;3.28;;;;;;;;;;4874354;29;20048;-70
2021/09/23 13:45:44;;;;;;;9.82;3.28;;;;;;;;;;4874113;29;20040;-64
2021/09/23 13:48:11;;;;;;;7.07;4.20;;;;;;;;;;4874429;29;20509;-67
2021/09/23 13:50:37;;;;;;;10.68;5.50;;;;;;;;;;4874533;29;20575;-64
2021/09/23 13:53:04;;;;;;;7.03;4.40;;;;;;;;;;4874478;29;20037;-65
2021/09/23 13:55:30;;;;;;;7.72;4.80;;;;;;;;;;4874031;29;20033;-66
2021/09/23 13:57:56;;;;;;;7.90;3.72;;;;;;;;;;4874416;29;20037;-67
2021/09/23 14:00:22;;;;;;;4.70;3.45;;;;;;;;;;4874347;29;20044;-67
2021/09/23 14:02:48;;;;;;;6.10;3.28;;;;;;;;;;4874048;29;20077;-62
2021/09/23 14:05:14;;;;;;;5.60;3.75;;;;;;;;;;4873834;29;20065;-64
2021/09/23 14:07:41;;;;;;;7.47;3.85;;;;;;;;;;4898924;29;20051;-67
2021/09/23 14:10:08;;;;;;;5.85;3.47;;;;;;;;;;4913776;29;20028;-68
2021/09/23 14:12:35;;;;;;;7.38;3.95;;;;;;;;;;4913902;29;20523;-69
2021/09/23 14:15:01;;;;;;;6.35;4.10;;;;;;;;;;4914025;29;20067;-69
2021/09/23 14:17:27;;;;;;;7.10;3.70;;;;;;;;;;4912728;29;20477;-65
2021/09/23 14:19:53;;;;;;;5.88;4.28;;;;;;;;;;4913960;29;20024;-69
2021/09/23 14:22:19;;;;;;;9.07;4.32;;;;;;;;;;4913908;29;20111;-65
2021/09/23 14:24:45;;;;;;;6.05;4.18;;;;;;;;;;4915159;29;20059;-67
2021/09/23 14:27:11;;;;;;;8.38;4.05;;;;;;;;;;4917817;29;20024;-67
2021/09/23 14:29:39;;;;;;;6.28;4.40;;;;;;;;;;4917459;29;20032;-65